sensor_id;sensor_type;location;lat;lon;timestamp;temperature;humidity
9824;DHT22;4951;50.778;7.196;2023-06-26T00:02:35;21.10;99.90
9824;DHT22;4951;50.778;7.196;2023-06-26T00:05:19;21.10;99.90
9824;DHT22;4951;50.778;7.196;2023-06-26T00:08:17;21.10;99.90
9824;DHT22;4951;50.778;7.196;2023-06-26T00:10:56;21.10;99.90
9824;DHT22;4951;50.778;7.196;2023-06-26T00:18:15;21.10;99.90
9824;DHT22;4951;50.778;7.196;2023-06-26T00:23:47;21.10;99.90
9824;DHT22;4951;50.778;7.196;2023-06-26T00:26:40;21.00;99.90
9824;DHT22;4951;50.778;7.196;2023-06-26T00:29:30;21.00;99.90
9824;DHT22;4951;50.778;7.196;2023-06-26T00:32:23;21.00;99.90
9824;DHT22;4951;50.778;7.196;2023-06-26T00:34:58;21.00;99.90
9824;DHT22;4951;50.778;7.196;2023-06-26T00:38:22;21.00;99.90
9824;DHT22;4951;50.778;7.196;2023-06-26T00:41:25;20.90;99.90
9824;DHT22;4951;50.778;7.196;2023-06-26T00:44:27;20.90;99.90
9824;DHT22;4951;50.778;7.196;2023-06-26T00:47:23;20.90;99.90
9824;DHT22;4951;50.778;7.196;2023-06-26T00:50:07;20.80;99.90
9824;DHT22;4951;50.778;7.196;2023-06-26T00:53:04;20.80;99.90
9824;DHT22;4951;50.778;7.196;2023-06-26T00:56:16;20.70;99.90
9824;DHT22;4951;50.778;7.196;2023-06-26T00:59:08;20.70;1.00
9824;DHT22;4951;50.778;7.196;2023-06-26T01:02:05;20.60;1.00
9824;DHT22;4951;50.778;7.196;2023-06-26T01:05:05;20.60;1.00
9824;DHT22;4951;50.778;7.196;2023-06-26T01:07:43;20.60;1.00
9824;DHT22;4951;50.778;7.196;2023-06-26T01:10:29;20.50;1.00
9824;DHT22;4951;50.778;7.196;2023-06-26T01:13:23;20.50;1.00
9824;DHT22;4951;50.778;7.196;2023-06-26T01:19:41;20.40;1.00
9824;DHT22;4951;50.778;7.196;2023-06-26T01:26:40;20.40;1.00
9824;DHT22;4951;50.778;7.196;2023-06-26T01:30:13;20.40;1.00
9824;DHT22;4951;50.778;7.196;2023-06-26T01:36:37;20.30;1.00
9824;DHT22;4951;50.778;7.196;2023-06-26T01:39:20;20.30;1.00
9824;DHT22;4951;50.778;7.196;2023-06-26T01:42:18;20.30;1.00
9824;DHT22;4951;50.778;7.196;2023-06-26T01:45:16;20.20;1.00
9824;DHT22;4951;50.778;7.196;2023-06-26T01:48:07;20.20;1.00
9824;DHT22;4951;50.778;7.196;2023-06-26T01:51:15;20.20;1.00
9824;DHT22;4951;50.778;7.196;2023-06-26T01:54:03;20.10;1.00
9824;DHT22;4951;50.778;7.196;2023-06-26T01:56:52;20.10;1.00
9824;DHT22;4951;50.778;7.196;2023-06-26T02:00:20;20.00;1.00
9824;DHT22;4951;50.778;7.196;2023-06-26T02:03:28;20.00;1.00
9824;DHT22;4951;50.778;7.196;2023-06-26T02:06:30;19.90;1.00
9824;DHT22;4951;50.778;7.196;2023-06-26T02:09:24;19.90;1.00
9824;DHT22;4951;50.778;7.196;2023-06-26T02:12:06;19.90;1.00
9824;DHT22;4951;50.778;7.196;2023-06-26T02:14:48;19.90;1.00
9824;DHT22;4951;50.778;7.196;2023-06-26T02:17:55;19.80;1.00
9824;DHT22;4951;50.778;7.196;2023-06-26T02:20:43;19.80;1.00
9824;DHT22;4951;50.778;7.196;2023-06-26T02:23:43;19.80;1.00
9824;DHT22;4951;50.778;7.196;2023-06-26T02:27:03;19.80;1.00
9824;DHT22;4951;50.778;7.196;2023-06-26T02:29:45;19.70;1.00
9824;DHT22;4951;50.778;7.196;2023-06-26T02:32:52;19.70;1.00
9824;DHT22;4951;50.778;7.196;2023-06-26T02:39:28;19.60;1.00
9824;DHT22;4951;50.778;7.196;2023-06-26T02:42:39;19.50;1.00
9824;DHT22;4951;50.778;7.196;2023-06-26T02:45:31;19.40;78.80
9824;DHT22;4951;50.778;7.196;2023-06-26T02:48:25;19.40;65.50
9824;DHT22;4951;50.778;7.196;2023-06-26T02:51:33;19.40;36.00
9824;DHT22;4951;50.778;7.196;2023-06-26T02:54:40;19.30;99.90
9824;DHT22;4951;50.778;7.196;2023-06-26T02:57:33;19.40;99.90
9824;DHT22;4951;50.778;7.196;2023-06-26T03:00:11;19.30;99.90
9824;DHT22;4951;50.778;7.196;2023-06-26T03:03:22;19.20;99.90
9824;DHT22;4951;50.778;7.196;2023-06-26T03:06:09;19.20;1.00
9824;DHT22;4951;50.778;7.196;2023-06-26T03:08:55;19.10;1.00
9824;DHT22;4951;50.778;7.196;2023-06-26T03:12:13;19.10;1.00
9824;DHT22;4951;50.778;7.196;2023-06-26T03:15:31;19.00;1.00
9824;DHT22;4951;50.778;7.196;2023-06-26T03:18:33;19.00;83.60
9824;DHT22;4951;50.778;7.196;2023-06-26T03:21:42;19.00;99.90
9824;DHT22;4951;50.778;7.196;2023-06-26T03:24:23;19.00;99.90
9824;DHT22;4951;50.778;7.196;2023-06-26T03:27:31;19.00;1.00
9824;DHT22;4951;50.778;7.196;2023-06-26T03:31:17;19.00;1.00
9824;DHT22;4951;50.778;7.196;2023-06-26T03:34:32;18.90;1.00
9824;DHT22;4951;50.778;7.196;2023-06-26T03:37:21;18.90;90.40
9824;DHT22;4951;50.778;7.196;2023-06-26T03:40:10;18.90;14.30
9824;DHT22;4951;50.778;7.196;2023-06-26T03:42:46;19.00;1.00
9824;DHT22;4951;50.778;7.196;2023-06-26T03:45:58;19.10;1.00
9824;DHT22;4951;50.778;7.196;2023-06-26T03:48:51;19.00;1.00
9824;DHT22;4951;50.778;7.196;2023-06-26T03:52:14;19.10;1.00
9824;DHT22;4951;50.778;7.196;2023-06-26T03:55:56;19.10;99.90
9824;DHT22;4951;50.778;7.196;2023-06-26T03:59:28;19.10;99.90
9824;DHT22;4951;50.778;7.196;2023-06-26T04:02:29;19.20;1.00
9824;DHT22;4951;50.778;7.196;2023-06-26T04:05:25;19.30;1.00
9824;DHT22;4951;50.778;7.196;2023-06-26T04:11:20;19.40;99.90
9824;DHT22;4951;50.778;7.196;2023-06-26T04:14:35;19.50;1.00
9824;DHT22;4951;50.778;7.196;2023-06-26T04:17:34;19.60;1.00
9824;DHT22;4951;50.778;7.196;2023-06-26T04:23:25;19.70;99.90
9824;DHT22;4951;50.778;7.196;2023-06-26T04:25:53;19.80;99.90
9824;DHT22;4951;50.778;7.196;2023-06-26T04:28:21;19.90;1.00
9824;DHT22;4951;50.778;7.196;2023-06-26T04:30:55;19.90;1.00
9824;DHT22;4951;50.778;7.196;2023-06-26T04:33:26;19.90;1.00
9824;DHT22;4951;50.778;7.196;2023-06-26T04:39:04;20.20;1.00
9824;DHT22;4951;50.778;7.196;2023-06-26T04:41:54;20.40;99.90
9824;DHT22;4951;50.778;7.196;2023-06-26T04:44:36;20.50;1.00
9824;DHT22;4951;50.778;7.196;2023-06-26T04:47:04;20.70;1.00
9824;DHT22;4951;50.778;7.196;2023-06-26T04:49:36;20.80;1.00
9824;DHT22;4951;50.778;7.196;2023-06-26T04:52:04;20.90;1.00
9824;DHT22;4951;50.778;7.196;2023-06-26T04:54:31;21.00;99.90
9824;DHT22;4951;50.778;7.196;2023-06-26T04:56:59;21.20;99.90
9824;DHT22;4951;50.778;7.196;2023-06-26T05:00:11;21.30;99.90
9824;DHT22;4951;50.778;7.196;2023-06-26T05:02:42;21.50;1.00
9824;DHT22;4951;50.778;7.196;2023-06-26T05:06:04;21.60;1.00
9824;DHT22;4951;50.778;7.196;2023-06-26T05:08:32;21.80;1.00
9824;DHT22;4951;50.778;7.196;2023-06-26T05:10:59;21.90;1.00
9824;DHT22;4951;50.778;7.196;2023-06-26T05:13:31;22.00;1.00
9824;DHT22;4951;50.778;7.196;2023-06-26T05:16:48;22.10;99.90
9824;DHT22;4951;50.778;7.196;2023-06-26T05:19:34;22.10;90.20
9824;DHT22;4951;50.778;7.196;2023-06-26T05:22:11;22.20;1.00
9824;DHT22;4951;50.778;7.196;2023-06-26T05:24:47;22.20;1.00
9824;DHT22;4951;50.778;7.196;2023-06-26T05:27:15;22.20;1.00
9824;DHT22;4951;50.778;7.196;2023-06-26T05:29:56;22.30;1.00
9824;DHT22;4951;50.778;7.196;2023-06-26T05:32:37;22.30;1.00
9824;DHT22;4951;50.778;7.196;2023-06-26T05:35:10;22.30;99.90
9824;DHT22;4951;50.778;7.196;2023-06-26T05:37:38;22.30;99.90
9824;DHT22;4951;50.778;7.196;2023-06-26T05:40:11;22.30;99.90
9824;DHT22;4951;50.778;7.196;2023-06-26T05:42:53;22.40;99.90
9824;DHT22;4951;50.778;7.196;2023-06-26T05:45:23;22.40;99.90
9824;DHT22;4951;50.778;7.196;2023-06-26T05:48:11;22.40;99.90
9824;DHT22;4951;50.778;7.196;2023-06-26T05:50:39;22.50;16.80
9824;DHT22;4951;50.778;7.196;2023-06-26T05:53:26;22.60;1.00
9824;DHT22;4951;50.778;7.196;2023-06-26T05:56:01;22.60;1.00
9824;DHT22;4951;50.778;7.196;2023-06-26T05:58:50;22.70;1.00
9824;DHT22;4951;50.778;7.196;2023-06-26T06:01:18;22.90;1.00
9824;DHT22;4951;50.778;7.196;2023-06-26T06:03:53;22.90;1.00
9824;DHT22;4951;50.778;7.196;2023-06-26T06:06:33;22.90;1.00
9824;DHT22;4951;50.778;7.196;2023-06-26T06:09:16;22.90;1.00
9824;DHT22;4951;50.778;7.196;2023-06-26T06:11:43;22.90;1.00
9824;DHT22;4951;50.778;7.196;2023-06-26T06:14:18;22.90;1.00
9824;DHT22;4951;50.778;7.196;2023-06-26T06:16:47;22.80;1.00
9824;DHT22;4951;50.778;7.196;2023-06-26T06:19:15;22.90;1.00
9824;DHT22;4951;50.778;7.196;2023-06-26T06:21:47;22.90;1.00
9824;DHT22;4951;50.778;7.196;2023-06-26T06:24:20;23.10;1.00
9824;DHT22;4951;50.778;7.196;2023-06-26T06:26:47;23.20;1.00
9824;DHT22;4951;50.778;7.196;2023-06-26T06:29:23;23.30;1.00
9824;DHT22;4951;50.778;7.196;2023-06-26T06:32:06;23.40;1.00
9824;DHT22;4951;50.778;7.196;2023-06-26T06:34:45;23.40;1.00
9824;DHT22;4951;50.778;7.196;2023-06-26T06:37:14;23.60;1.00
9824;DHT22;4951;50.778;7.196;2023-06-26T06:39:50;23.80;1.00
9824;DHT22;4951;50.778;7.196;2023-06-26T06:42:17;24.00;1.00
9824;DHT22;4951;50.778;7.196;2023-06-26T06:44:45;24.00;1.00
9824;DHT22;4951;50.778;7.196;2023-06-26T06:47:18;23.90;99.90
9824;DHT22;4951;50.778;7.196;2023-06-26T06:49:49;23.80;99.90
9824;DHT22;4951;50.778;7.196;2023-06-26T06:52:16;23.50;99.90
9824;DHT22;4951;50.778;7.196;2023-06-26T06:54:53;23.30;1.00
9824;DHT22;4951;50.778;7.196;2023-06-26T06:57:48;23.10;1.00
9824;DHT22;4951;50.778;7.196;2023-06-26T07:03:18;23.30;1.00
9824;DHT22;4951;50.778;7.196;2023-06-26T07:05:48;23.50;1.00
9824;DHT22;4951;50.778;7.196;2023-06-26T07:08:21;23.50;1.00
9824;DHT22;4951;50.778;7.196;2023-06-26T07:11:04;23.30;1.00
9824;DHT22;4951;50.778;7.196;2023-06-26T07:13:31;23.10;1.00
9824;DHT22;4951;50.778;7.196;2023-06-26T07:15:58;23.10;1.00
9824;DHT22;4951;50.778;7.196;2023-06-26T07:18:36;23.10;1.00
9824;DHT22;4951;50.778;7.196;2023-06-26T07:21:16;23.30;1.00
9824;DHT22;4951;50.778;7.196;2023-06-26T07:23:44;23.40;1.00
9824;DHT22;4951;50.778;7.196;2023-06-26T07:26:13;23.50;1.00
9824;DHT22;4951;50.778;7.196;2023-06-26T07:28:41;23.30;1.00
9824;DHT22;4951;50.778;7.196;2023-06-26T07:31:08;23.20;1.00
9824;DHT22;4951;50.778;7.196;2023-06-26T07:33:38;23.10;1.00
9824;DHT22;4951;50.778;7.196;2023-06-26T07:36:36;23.00;1.00
9824;DHT22;4951;50.778;7.196;2023-06-26T07:39:14;22.90;1.00
9824;DHT22;4951;50.778;7.196;2023-06-26T07:41:41;22.80;1.00
9824;DHT22;4951;50.778;7.196;2023-06-26T07:44:16;22.80;1.00
9824;DHT22;4951;50.778;7.196;2023-06-26T07:46:46;22.80;1.00
9824;DHT22;4951;50.778;7.196;2023-06-26T07:49:13;22.90;32.40
9824;DHT22;4951;50.778;7.196;2023-06-26T07:51:51;23.00;16.40
9824;DHT22;4951;50.778;7.196;2023-06-26T07:54:20;23.10;1.00
9824;DHT22;4951;50.778;7.196;2023-06-26T07:56:55;23.20;1.00
9824;DHT22;4951;50.778;7.196;2023-06-26T07:59:23;23.20;1.00
9824;DHT22;4951;50.778;7.196;2023-06-26T08:01:53;23.20;1.00
9824;DHT22;4951;50.778;7.196;2023-06-26T08:04:36;23.10;1.00
9824;DHT22;4951;50.778;7.196;2023-06-26T08:07:07;23.10;1.00
9824;DHT22;4951;50.778;7.196;2023-06-26T08:09:48;23.10;1.00
9824;DHT22;4951;50.778;7.196;2023-06-26T08:12:15;23.10;93.30
9824;DHT22;4951;50.778;7.196;2023-06-26T08:14:42;23.20;99.90
9824;DHT22;4951;50.778;7.196;2023-06-26T08:17:10;23.20;1.00
9824;DHT22;4951;50.778;7.196;2023-06-26T08:19:46;23.20;1.00
9824;DHT22;4951;50.778;7.196;2023-06-26T08:22:14;23.20;1.00
9824;DHT22;4951;50.778;7.196;2023-06-26T08:24:48;23.20;1.00
9824;DHT22;4951;50.778;7.196;2023-06-26T08:27:20;23.30;1.00
9824;DHT22;4951;50.778;7.196;2023-06-26T08:30:07;23.40;1.00
9824;DHT22;4951;50.778;7.196;2023-06-26T08:32:38;23.40;1.00
9824;DHT22;4951;50.778;7.196;2023-06-26T08:35:20;23.40;1.00
9824;DHT22;4951;50.778;7.196;2023-06-26T08:37:49;23.40;1.00
9824;DHT22;4951;50.778;7.196;2023-06-26T08:40:17;23.40;1.00
9824;DHT22;4951;50.778;7.196;2023-06-26T08:42:46;23.40;1.00
9824;DHT22;4951;50.778;7.196;2023-06-26T08:45:22;23.40;1.00
9824;DHT22;4951;50.778;7.196;2023-06-26T08:47:54;23.50;1.00
9824;DHT22;4951;50.778;7.196;2023-06-26T08:50:27;23.60;1.00
9824;DHT22;4951;50.778;7.196;2023-06-26T08:53:26;23.70;1.00
9824;DHT22;4951;50.778;7.196;2023-06-26T08:58:43;24.00;1.00
9824;DHT22;4951;50.778;7.196;2023-06-26T09:01:11;24.20;1.00
9824;DHT22;4951;50.778;7.196;2023-06-26T09:03:39;24.40;1.00
9824;DHT22;4951;50.778;7.196;2023-06-26T09:06:21;24.50;99.90
9824;DHT22;4951;50.778;7.196;2023-06-26T09:08:50;24.60;99.90
9824;DHT22;4951;50.778;7.196;2023-06-26T09:11:24;24.50;99.90
9824;DHT22;4951;50.778;7.196;2023-06-26T09:13:52;24.50;99.90
9824;DHT22;4951;50.778;7.196;2023-06-26T09:16:41;24.30;99.90
9824;DHT22;4951;50.778;7.196;2023-06-26T09:19:09;24.20;99.90
9824;DHT22;4951;50.778;7.196;2023-06-26T09:21:55;24.20;99.90
9824;DHT22;4951;50.778;7.196;2023-06-26T09:27:13;24.30;99.90
9824;DHT22;4951;50.778;7.196;2023-06-26T09:29:41;24.40;99.90
9824;DHT22;4951;50.778;7.196;2023-06-26T09:32:15;24.50;99.90
9824;DHT22;4951;50.778;7.196;2023-06-26T09:34:44;24.60;99.90
9824;DHT22;4951;50.778;7.196;2023-06-26T09:37:12;24.70;99.90
9824;DHT22;4951;50.778;7.196;2023-06-26T09:39:50;24.70;99.90
9824;DHT22;4951;50.778;7.196;2023-06-26T09:42:18;24.70;59.00
9824;DHT22;4951;50.778;7.196;2023-06-26T09:44:54;24.60;46.80
9824;DHT22;4951;50.778;7.196;2023-06-26T09:47:22;24.50;2.10
9824;DHT22;4951;50.778;7.196;2023-06-26T09:49:50;24.40;22.50
9824;DHT22;4951;50.778;7.196;2023-06-26T09:52:18;24.50;46.10
9824;DHT22;4951;50.778;7.196;2023-06-26T09:54:56;24.50;10.70
9824;DHT22;4951;50.778;7.196;2023-06-26T09:57:52;24.50;1.00
9824;DHT22;4951;50.778;7.196;2023-06-26T10:00:22;24.40;1.00
9824;DHT22;4951;50.778;7.196;2023-06-26T10:03:16;24.40;1.00
9824;DHT22;4951;50.778;7.196;2023-06-26T10:05:44;24.40;1.00
9824;DHT22;4951;50.778;7.196;2023-06-26T10:08:15;24.50;1.00
9824;DHT22;4951;50.778;7.196;2023-06-26T10:10:49;24.60;1.00
9824;DHT22;4951;50.778;7.196;2023-06-26T10:13:21;24.70;1.00
9824;DHT22;4951;50.778;7.196;2023-06-26T10:15:50;24.90;1.00
9824;DHT22;4951;50.778;7.196;2023-06-26T10:18:21;24.90;1.00
9824;DHT22;4951;50.778;7.196;2023-06-26T10:21:41;24.90;1.00
9824;DHT22;4951;50.778;7.196;2023-06-26T10:24:20;25.00;1.00
9824;DHT22;4951;50.778;7.196;2023-06-26T10:27:03;25.00;1.00
9824;DHT22;4951;50.778;7.196;2023-06-26T10:29:31;25.00;1.00
9824;DHT22;4951;50.778;7.196;2023-06-26T10:32:04;25.00;1.00
9824;DHT22;4951;50.778;7.196;2023-06-26T10:34:44;25.00;1.00
9824;DHT22;4951;50.778;7.196;2023-06-26T10:37:12;25.00;1.00
9824;DHT22;4951;50.778;7.196;2023-06-26T10:39:47;25.10;1.00
9824;DHT22;4951;50.778;7.196;2023-06-26T10:42:35;25.20;1.00
9824;DHT22;4951;50.778;7.196;2023-06-26T10:45:28;25.20;1.00
9824;DHT22;4951;50.778;7.196;2023-06-26T10:48:15;25.00;1.00
9824;DHT22;4951;50.778;7.196;2023-06-26T10:51:15;25.00;1.00
9824;DHT22;4951;50.778;7.196;2023-06-26T10:53:42;25.00;1.00
9824;DHT22;4951;50.778;7.196;2023-06-26T10:56:43;25.00;1.00
9824;DHT22;4951;50.778;7.196;2023-06-26T10:59:22;25.00;99.90
9824;DHT22;4951;50.778;7.196;2023-06-26T11:01:55;25.00;99.90
9824;DHT22;4951;50.778;7.196;2023-06-26T11:04:38;25.00;99.90
9824;DHT22;4951;50.778;7.196;2023-06-26T11:07:19;25.00;99.90
9824;DHT22;4951;50.778;7.196;2023-06-26T11:13:06;25.00;99.90
9824;DHT22;4951;50.778;7.196;2023-06-26T11:15:52;24.90;99.90
9824;DHT22;4951;50.778;7.196;2023-06-26T11:18:30;25.00;99.90
9824;DHT22;4951;50.778;7.196;2023-06-26T11:21:08;25.10;99.90
9824;DHT22;4951;50.778;7.196;2023-06-26T11:23:56;25.20;99.90
9824;DHT22;4951;50.778;7.196;2023-06-26T11:26:27;25.20;99.90
9824;DHT22;4951;50.778;7.196;2023-06-26T11:29:00;25.20;99.90
9824;DHT22;4951;50.778;7.196;2023-06-26T11:31:31;25.10;99.90
9824;DHT22;4951;50.778;7.196;2023-06-26T11:34:19;25.10;99.90
9824;DHT22;4951;50.778;7.196;2023-06-26T11:36:51;25.20;99.90
9824;DHT22;4951;50.778;7.196;2023-06-26T11:39:24;25.30;99.90
9824;DHT22;4951;50.778;7.196;2023-06-26T11:41:52;25.50;99.90
9824;DHT22;4951;50.778;7.196;2023-06-26T11:44:45;25.70;99.90
9824;DHT22;4951;50.778;7.196;2023-06-26T11:48:01;25.80;99.90
9824;DHT22;4951;50.778;7.196;2023-06-26T11:50:51;26.00;99.90
9824;DHT22;4951;50.778;7.196;2023-06-26T11:54:07;26.00;99.90
9824;DHT22;4951;50.778;7.196;2023-06-26T11:57:14;26.10;99.90
9824;DHT22;4951;50.778;7.196;2023-06-26T12:00:12;26.10;99.90
9824;DHT22;4951;50.778;7.196;2023-06-26T12:02:51;26.30;99.90
9824;DHT22;4951;50.778;7.196;2023-06-26T12:05:21;26.30;98.60
9824;DHT22;4951;50.778;7.196;2023-06-26T12:08:13;26.40;93.70
9824;DHT22;4951;50.778;7.196;2023-06-26T12:10:41;26.40;86.40
9824;DHT22;4951;50.778;7.196;2023-06-26T12:13:18;26.50;79.50
9824;DHT22;4951;50.778;7.196;2023-06-26T12:15:50;26.40;77.10
9824;DHT22;4951;50.778;7.196;2023-06-26T12:18:19;26.40;85.10
9824;DHT22;4951;50.778;7.196;2023-06-26T12:20:52;26.40;65.70
9824;DHT22;4951;50.778;7.196;2023-06-26T12:23:22;26.50;44.80
9824;DHT22;4951;50.778;7.196;2023-06-26T12:26:16;26.60;42.40
9824;DHT22;4951;50.778;7.196;2023-06-26T12:28:45;26.70;35.20
9824;DHT22;4951;50.778;7.196;2023-06-26T12:31:26;26.80;47.50
9824;DHT22;4951;50.778;7.196;2023-06-26T12:33:57;27.10;26.10
9824;DHT22;4951;50.778;7.196;2023-06-26T12:36:43;27.20;18.60
9824;DHT22;4951;50.778;7.196;2023-06-26T12:39:11;27.30;7.10
9824;DHT22;4951;50.778;7.196;2023-06-26T12:41:52;27.20;1.00
9824;DHT22;4951;50.778;7.196;2023-06-26T12:44:20;27.20;1.00
9824;DHT22;4951;50.778;7.196;2023-06-26T12:46:49;27.10;3.80
9824;DHT22;4951;50.778;7.196;2023-06-26T12:49:18;27.20;7.50
9824;DHT22;4951;50.778;7.196;2023-06-26T12:52:05;27.20;6.60
9824;DHT22;4951;50.778;7.196;2023-06-26T12:54:33;27.20;8.90
9824;DHT22;4951;50.778;7.196;2023-06-26T12:57:01;27.10;1.00
9824;DHT22;4951;50.778;7.196;2023-06-26T12:59:35;27.20;1.00
9824;DHT22;4951;50.778;7.196;2023-06-26T13:02:16;27.30;1.00
9824;DHT22;4951;50.778;7.196;2023-06-26T13:04:43;27.50;1.00
9824;DHT22;4951;50.778;7.196;2023-06-26T13:07:26;27.70;1.00
9824;DHT22;4951;50.778;7.196;2023-06-26T13:10:08;27.70;1.00
9824;DHT22;4951;50.778;7.196;2023-06-26T13:12:50;27.40;1.00
9824;DHT22;4951;50.778;7.196;2023-06-26T13:15:22;27.00;1.00
9824;DHT22;4951;50.778;7.196;2023-06-26T13:17:49;26.80;1.00
9824;DHT22;4951;50.778;7.196;2023-06-26T13:20:17;26.60;1.00
9824;DHT22;4951;50.778;7.196;2023-06-26T13:22:50;26.60;1.00
9824;DHT22;4951;50.778;7.196;2023-06-26T13:25:20;26.60;1.00
9824;DHT22;4951;50.778;7.196;2023-06-26T13:27:47;26.50;1.00
9824;DHT22;4951;50.778;7.196;2023-06-26T13:30:15;26.60;1.00
9824;DHT22;4951;50.778;7.196;2023-06-26T13:32:44;26.60;1.00
9824;DHT22;4951;50.778;7.196;2023-06-26T13:35:12;26.80;1.00
9824;DHT22;4951;50.778;7.196;2023-06-26T13:37:40;27.40;1.00
9824;DHT22;4951;50.778;7.196;2023-06-26T13:40:17;27.70;1.00
9824;DHT22;4951;50.778;7.196;2023-06-26T13:43:01;27.70;1.00
9824;DHT22;4951;50.778;7.196;2023-06-26T13:45:30;27.50;1.00
9824;DHT22;4951;50.778;7.196;2023-06-26T13:47:59;27.40;1.00
9824;DHT22;4951;50.778;7.196;2023-06-26T13:50:28;27.00;1.00
9824;DHT22;4951;50.778;7.196;2023-06-26T13:53:14;26.80;1.00
9824;DHT22;4951;50.778;7.196;2023-06-26T13:55:49;26.30;1.00
9824;DHT22;4951;50.778;7.196;2023-06-26T13:58:17;26.00;1.00
9824;DHT22;4951;50.778;7.196;2023-06-26T14:01:05;25.80;1.00
9824;DHT22;4951;50.778;7.196;2023-06-26T14:04:04;25.60;1.00
9824;DHT22;4951;50.778;7.196;2023-06-26T14:07:07;25.70;1.00
9824;DHT22;4951;50.778;7.196;2023-06-26T14:10:32;26.30;1.00
9824;DHT22;4951;50.778;7.196;2023-06-26T14:24:31;26.20;1.00
9824;DHT22;4951;50.778;7.196;2023-06-26T14:27:00;26.70;1.00
9824;DHT22;4951;50.778;7.196;2023-06-26T14:29:27;27.20;1.00
9824;DHT22;4951;50.778;7.196;2023-06-26T14:32:09;27.80;1.00
9824;DHT22;4951;50.778;7.196;2023-06-26T14:35:32;28.30;1.00
9824;DHT22;4951;50.778;7.196;2023-06-26T14:38:41;28.50;1.00
9824;DHT22;4951;50.778;7.196;2023-06-26T14:49:27;28.10;1.00
9824;DHT22;4951;50.778;7.196;2023-06-26T14:52:07;28.60;1.00
9824;DHT22;4951;50.778;7.196;2023-06-26T14:55:04;28.70;1.00
9824;DHT22;4951;50.778;7.196;2023-06-26T14:58:24;29.20;1.00
9824;DHT22;4951;50.778;7.196;2023-06-26T15:00:53;29.80;1.00
9824;DHT22;4951;50.778;7.196;2023-06-26T15:03:23;30.10;1.00
9824;DHT22;4951;50.778;7.196;2023-06-26T15:06:00;30.00;1.00
9824;DHT22;4951;50.778;7.196;2023-06-26T15:08:45;29.50;1.00
9824;DHT22;4951;50.778;7.196;2023-06-26T15:11:39;28.80;1.00
9824;DHT22;4951;50.778;7.196;2023-06-26T15:14:23;28.10;1.00
9824;DHT22;4951;50.778;7.196;2023-06-26T15:17:02;27.60;1.00
9824;DHT22;4951;50.778;7.196;2023-06-26T15:19:33;27.70;1.00
9824;DHT22;4951;50.778;7.196;2023-06-26T15:22:08;28.20;1.00
9824;DHT22;4951;50.778;7.196;2023-06-26T15:24:41;28.50;1.00
9824;DHT22;4951;50.778;7.196;2023-06-26T15:27:16;28.30;1.00
9824;DHT22;4951;50.778;7.196;2023-06-26T15:29:48;28.10;1.00
9824;DHT22;4951;50.778;7.196;2023-06-26T15:32:15;27.60;1.00
9824;DHT22;4951;50.778;7.196;2023-06-26T15:34:46;27.40;1.00
9824;DHT22;4951;50.778;7.196;2023-06-26T15:37:29;27.50;1.00
9824;DHT22;4951;50.778;7.196;2023-06-26T15:40:04;27.70;1.00
9824;DHT22;4951;50.778;7.196;2023-06-26T15:42:47;27.80;1.00
9824;DHT22;4951;50.778;7.196;2023-06-26T15:45:52;27.80;1.00
9824;DHT22;4951;50.778;7.196;2023-06-26T15:48:55;27.80;1.00
9824;DHT22;4951;50.778;7.196;2023-06-26T15:52:39;27.50;1.00
9824;DHT22;4951;50.778;7.196;2023-06-26T15:55:08;27.20;1.00
9824;DHT22;4951;50.778;7.196;2023-06-26T15:57:41;27.00;1.00
9824;DHT22;4951;50.778;7.196;2023-06-26T16:00:41;26.80;1.00
9824;DHT22;4951;50.778;7.196;2023-06-26T16:07:33;26.20;1.00
9824;DHT22;4951;50.778;7.196;2023-06-26T16:10:03;26.40;1.00
9824;DHT22;4951;50.778;7.196;2023-06-26T16:12:45;26.70;1.00
9824;DHT22;4951;50.778;7.196;2023-06-26T16:15:20;26.90;1.00
9824;DHT22;4951;50.778;7.196;2023-06-26T16:18:27;27.10;1.00
9824;DHT22;4951;50.778;7.196;2023-06-26T16:20:57;27.40;1.00
9824;DHT22;4951;50.778;7.196;2023-06-26T16:23:25;27.80;1.00
9824;DHT22;4951;50.778;7.196;2023-06-26T16:26:02;27.80;1.00
9824;DHT22;4951;50.778;7.196;2023-06-26T16:28:58;27.90;1.00
9824;DHT22;4951;50.778;7.196;2023-06-26T16:31:57;27.70;1.00
9824;DHT22;4951;50.778;7.196;2023-06-26T16:34:34;27.30;1.00
9824;DHT22;4951;50.778;7.196;2023-06-26T16:37:02;26.90;1.00
9824;DHT22;4951;50.778;7.196;2023-06-26T16:39:51;26.50;1.00
9824;DHT22;4951;50.778;7.196;2023-06-26T16:42:19;26.10;1.00
9824;DHT22;4951;50.778;7.196;2023-06-26T16:44:47;25.80;1.00
9824;DHT22;4951;50.778;7.196;2023-06-26T16:47:15;25.60;1.00
9824;DHT22;4951;50.778;7.196;2023-06-26T16:50:21;25.40;1.00
9824;DHT22;4951;50.778;7.196;2023-06-26T16:53:25;25.20;1.00
9824;DHT22;4951;50.778;7.196;2023-06-26T17:00:43;24.80;1.00
9824;DHT22;4951;50.778;7.196;2023-06-26T17:06:43;24.50;1.00
9824;DHT22;4951;50.778;7.196;2023-06-26T17:09:17;24.30;1.00
9824;DHT22;4951;50.778;7.196;2023-06-26T17:12:15;24.20;1.00
9824;DHT22;4951;50.778;7.196;2023-06-26T17:18:34;24.10;1.00
9824;DHT22;4951;50.778;7.196;2023-06-26T17:21:36;24.00;1.00
9824;DHT22;4951;50.778;7.196;2023-06-26T17:24:36;23.90;1.00
9824;DHT22;4951;50.778;7.196;2023-06-26T17:27:20;23.80;1.00
9824;DHT22;4951;50.778;7.196;2023-06-26T17:31:21;23.70;1.00
9824;DHT22;4951;50.778;7.196;2023-06-26T17:41:29;23.40;1.00
9824;DHT22;4951;50.778;7.196;2023-06-26T17:44:14;23.30;1.00
9824;DHT22;4951;50.778;7.196;2023-06-26T17:51:14;23.10;1.00
9824;DHT22;4951;50.778;7.196;2023-06-26T17:54:01;23.10;1.00
9824;DHT22;4951;50.778;7.196;2023-06-26T17:57:16;23.10;1.00
9824;DHT22;4951;50.778;7.196;2023-06-26T18:00:15;23.00;1.00
9824;DHT22;4951;50.778;7.196;2023-06-26T18:02:45;23.00;1.00
9824;DHT22;4951;50.778;7.196;2023-06-26T18:05:22;22.90;1.00
9824;DHT22;4951;50.778;7.196;2023-06-26T18:08:12;22.90;1.00
9824;DHT22;4951;50.778;7.196;2023-06-26T18:11:12;22.70;1.00
9824;DHT22;4951;50.778;7.196;2023-06-26T18:14:10;22.70;1.00
9824;DHT22;4951;50.778;7.196;2023-06-26T18:17:24;22.60;1.00
9824;DHT22;4951;50.778;7.196;2023-06-26T18:23:07;22.50;1.00
9824;DHT22;4951;50.778;7.196;2023-06-26T18:25:44;22.40;1.00
9824;DHT22;4951;50.778;7.196;2023-06-26T18:31:42;22.30;1.00
9824;DHT22;4951;50.778;7.196;2023-06-26T18:34:09;22.30;1.00
9824;DHT22;4951;50.778;7.196;2023-06-26T18:36:37;22.30;1.00
9824;DHT22;4951;50.778;7.196;2023-06-26T18:39:10;22.40;1.00
9824;DHT22;4951;50.778;7.196;2023-06-26T18:41:42;22.30;1.00
9824;DHT22;4951;50.778;7.196;2023-06-26T18:44:09;22.30;1.00
9824;DHT22;4951;50.778;7.196;2023-06-26T18:46:49;22.30;1.00
9824;DHT22;4951;50.778;7.196;2023-06-26T18:49:51;22.20;1.00
9824;DHT22;4951;50.778;7.196;2023-06-26T18:52:23;22.10;1.00
9824;DHT22;4951;50.778;7.196;2023-06-26T18:54:55;22.00;1.00
9824;DHT22;4951;50.778;7.196;2023-06-26T18:57:25;21.90;1.00
9824;DHT22;4951;50.778;7.196;2023-06-26T18:59:53;21.80;1.00
9824;DHT22;4951;50.778;7.196;2023-06-26T19:02:27;21.70;1.00
9824;DHT22;4951;50.778;7.196;2023-06-26T19:04:54;21.60;1.00
9824;DHT22;4951;50.778;7.196;2023-06-26T19:07:22;21.50;1.00
9824;DHT22;4951;50.778;7.196;2023-06-26T19:09:54;21.50;1.00
9824;DHT22;4951;50.778;7.196;2023-06-26T19:12:24;21.40;1.00
9824;DHT22;4951;50.778;7.196;2023-06-26T19:15:10;21.40;1.00
9824;DHT22;4951;50.778;7.196;2023-06-26T19:17:43;21.30;1.00
9824;DHT22;4951;50.778;7.196;2023-06-26T19:20:11;21.20;1.00
9824;DHT22;4951;50.778;7.196;2023-06-26T19:22:43;21.20;1.00
9824;DHT22;4951;50.778;7.196;2023-06-26T19:25:18;21.10;1.00
9824;DHT22;4951;50.778;7.196;2023-06-26T19:27:45;21.00;1.00
9824;DHT22;4951;50.778;7.196;2023-06-26T19:30:18;20.90;1.00
9824;DHT22;4951;50.778;7.196;2023-06-26T19:32:46;21.00;1.00